UDBER weather

Campo di Volo "Al Ranch"
Bertiolo (UD), Friuli-Venezia Giulia, Italy

Public forecast

Using degrees Celsius for public forecast. Weather courtesy of forecast.io.

Closest aviation weather report (METAR) to Campo di Volo "Al Ranch"

Report is more than 6 hours old.

Closest report is Rivolto Air Base, 3.4 nm (6.3 km) N. Retrieved 2020/04/09 13:55 UTC (13 hours ago):

LIPI 091355Z 17004KT CAVOK 24/M02 Q1020 RMK SKC VIS MIN 9999 WIND THR06 24006KT WIND THR24 23004KT BLU

Closest aviation forecast (TAF) to Campo di Volo "Al Ranch"

Forecast is more than 12 hours old.

Closest forecast is Rivolto Air Base, 3.4 nm (6.3 km) N. Retrieved 2020/01/23 12:24 UTC (3 months ago):

TAF TAF LIPI 231100Z 2312/2324 06010KT CAVOK